sensor_id;sensor_type;location;lat;lon;timestamp;temperature;humidity
56300;DHT22;42209;6.376;-10.782;2023-12-29T00:02:11;24.20;63.60
56300;DHT22;42209;6.376;-10.782;2023-12-29T00:04:39;24.30;65.40
56300;DHT22;42209;6.376;-10.782;2023-12-29T00:07:08;24.30;61.60
56300;DHT22;42209;6.376;-10.782;2023-12-29T00:09:36;24.10;58.00
56300;DHT22;42209;6.376;-10.782;2023-12-29T00:12:05;23.80;56.50
56300;DHT22;42209;6.376;-10.782;2023-12-29T00:14:34;23.60;55.10
56300;DHT22;42209;6.376;-10.782;2023-12-29T00:17:04;23.70;60.20
56300;DHT22;42209;6.376;-10.782;2023-12-29T00:19:33;24.00;62.60
56300;DHT22;42209;6.376;-10.782;2023-12-29T00:22:01;24.20;64.20
56300;DHT22;42209;6.376;-10.782;2023-12-29T00:24:31;24.40;65.80
56300;DHT22;42209;6.376;-10.782;2023-12-29T00:26:59;24.30;60.70
56300;DHT22;42209;6.376;-10.782;2023-12-29T00:29:28;24.00;58.60
56300;DHT22;42209;6.376;-10.782;2023-12-29T00:31:56;23.80;56.30
56300;DHT22;42209;6.376;-10.782;2023-12-29T00:34:25;23.70;59.00
56300;DHT22;42209;6.376;-10.782;2023-12-29T00:36:54;23.90;62.10
56300;DHT22;42209;6.376;-10.782;2023-12-29T00:39:22;24.10;64.00
56300;DHT22;42209;6.376;-10.782;2023-12-29T00:41:51;24.30;65.50
56300;DHT22;42209;6.376;-10.782;2023-12-29T00:44:19;24.30;62.50
56300;DHT22;42209;6.376;-10.782;2023-12-29T00:46:48;24.10;58.60
56300;DHT22;42209;6.376;-10.782;2023-12-29T00:49:24;23.90;56.80
56300;DHT22;42209;6.376;-10.782;2023-12-29T00:51:53;23.70;59.00
56300;DHT22;42209;6.376;-10.782;2023-12-29T00:54:22;23.90;62.30
56300;DHT22;42209;6.376;-10.782;2023-12-29T00:56:54;24.20;64.40
56300;DHT22;42209;6.376;-10.782;2023-12-29T00:59:23;24.30;65.80
56300;DHT22;42209;6.376;-10.782;2023-12-29T01:01:51;24.40;63.40
56300;DHT22;42209;6.376;-10.782;2023-12-29T01:04:20;24.10;59.00
56300;DHT22;42209;6.376;-10.782;2023-12-29T01:06:48;23.90;57.10
56300;DHT22;42209;6.376;-10.782;2023-12-29T01:09:17;23.70;57.40
56300;DHT22;42209;6.376;-10.782;2023-12-29T01:11:46;23.90;61.90
56300;DHT22;42209;6.376;-10.782;2023-12-29T01:14:14;24.10;63.90
56300;DHT22;42209;6.376;-10.782;2023-12-29T01:16:42;24.30;65.40
56300;DHT22;42209;6.376;-10.782;2023-12-29T01:19:10;24.40;66.00
56300;DHT22;42209;6.376;-10.782;2023-12-29T01:21:39;24.20;60.10
56300;DHT22;42209;6.376;-10.782;2023-12-29T01:24:07;23.90;57.80
56300;DHT22;42209;6.376;-10.782;2023-12-29T01:26:39;23.70;56.40
56300;DHT22;42209;6.376;-10.782;2023-12-29T01:29:07;23.70;59.80
56300;DHT22;42209;6.376;-10.782;2023-12-29T01:31:36;23.90;62.50
56300;DHT22;42209;6.376;-10.782;2023-12-29T01:34:04;24.20;64.50
56300;DHT22;42209;6.376;-10.782;2023-12-29T01:36:32;24.30;65.80
56300;DHT22;42209;6.376;-10.782;2023-12-29T01:39:00;24.40;62.40
56300;DHT22;42209;6.376;-10.782;2023-12-29T01:41:30;24.10;58.80
56300;DHT22;42209;6.376;-10.782;2023-12-29T01:46:34;23.70;57.70
56300;DHT22;42209;6.376;-10.782;2023-12-29T01:49:03;23.90;62.20
56300;DHT22;42209;6.376;-10.782;2023-12-29T01:51:32;24.10;64.10
56300;DHT22;42209;6.376;-10.782;2023-12-29T01:54:01;24.30;65.60
56300;DHT22;42209;6.376;-10.782;2023-12-29T01:56:30;24.40;65.20
56300;DHT22;42209;6.376;-10.782;2023-12-29T01:58:59;24.20;60.00
56300;DHT22;42209;6.376;-10.782;2023-12-29T02:01:38;23.90;57.70
56300;DHT22;42209;6.376;-10.782;2023-12-29T02:04:07;23.70;57.20
56300;DHT22;42209;6.376;-10.782;2023-12-29T02:06:36;23.90;61.80
56300;DHT22;42209;6.376;-10.782;2023-12-29T02:09:05;24.10;64.00
56300;DHT22;42209;6.376;-10.782;2023-12-29T02:11:33;24.30;65.50
56300;DHT22;42209;6.376;-10.782;2023-12-29T02:14:02;24.40;66.10
56300;DHT22;42209;6.376;-10.782;2023-12-29T02:19:00;24.00;57.70
56300;DHT22;42209;6.376;-10.782;2023-12-29T02:21:29;23.70;56.70
56300;DHT22;42209;6.376;-10.782;2023-12-29T02:23:58;23.80;61.60
56300;DHT22;42209;6.376;-10.782;2023-12-29T02:26:29;24.00;64.00
56300;DHT22;42209;6.376;-10.782;2023-12-29T02:29:02;24.20;65.60
56300;DHT22;42209;6.376;-10.782;2023-12-29T02:31:33;24.40;67.00
56300;DHT22;42209;6.376;-10.782;2023-12-29T02:34:03;24.30;61.40
56300;DHT22;42209;6.376;-10.782;2023-12-29T02:36:33;24.00;58.30
56300;DHT22;42209;6.376;-10.782;2023-12-29T02:39:02;23.70;56.50
56300;DHT22;42209;6.376;-10.782;2023-12-29T02:41:31;23.80;61.80
56300;DHT22;42209;6.376;-10.782;2023-12-29T02:44:00;24.00;64.10
56300;DHT22;42209;6.376;-10.782;2023-12-29T02:46:29;24.20;65.70
56300;DHT22;42209;6.376;-10.782;2023-12-29T02:48:57;24.40;67.00
56300;DHT22;42209;6.376;-10.782;2023-12-29T02:51:26;24.30;61.50
56300;DHT22;42209;6.376;-10.782;2023-12-29T02:53:55;24.00;58.40
56300;DHT22;42209;6.376;-10.782;2023-12-29T02:56:24;23.70;56.70
56300;DHT22;42209;6.376;-10.782;2023-12-29T02:58:52;23.70;60.40
56300;DHT22;42209;6.376;-10.782;2023-12-29T03:01:21;23.90;63.90
56300;DHT22;42209;6.376;-10.782;2023-12-29T03:03:49;24.20;65.00
56300;DHT22;42209;6.376;-10.782;2023-12-29T03:06:18;24.30;66.60
56300;DHT22;42209;6.376;-10.782;2023-12-29T03:08:46;24.30;63.20
56300;DHT22;42209;6.376;-10.782;2023-12-29T03:11:15;24.00;59.20
56300;DHT22;42209;6.376;-10.782;2023-12-29T03:13:43;23.80;57.10
56300;DHT22;42209;6.376;-10.782;2023-12-29T03:16:11;23.70;58.90
56300;DHT22;42209;6.376;-10.782;2023-12-29T03:18:40;23.90;62.70
56300;DHT22;42209;6.376;-10.782;2023-12-29T03:21:08;24.10;64.70
56300;DHT22;42209;6.376;-10.782;2023-12-29T03:23:37;24.30;66.60
56300;DHT22;42209;6.376;-10.782;2023-12-29T03:26:05;24.40;66.20
56300;DHT22;42209;6.376;-10.782;2023-12-29T03:28:34;24.20;60.30
56300;DHT22;42209;6.376;-10.782;2023-12-29T03:31:02;23.90;58.20
56300;DHT22;42209;6.376;-10.782;2023-12-29T03:33:31;23.70;57.60
56300;DHT22;42209;6.376;-10.782;2023-12-29T03:35:59;23.90;62.20
56300;DHT22;42209;6.376;-10.782;2023-12-29T03:38:27;24.00;64.40
56300;DHT22;42209;6.376;-10.782;2023-12-29T03:40:56;24.20;66.10
56300;DHT22;42209;6.376;-10.782;2023-12-29T03:43:24;24.30;67.90
56300;DHT22;42209;6.376;-10.782;2023-12-29T03:45:54;24.30;61.90
56300;DHT22;42209;6.376;-10.782;2023-12-29T03:48:23;23.90;58.70
56300;DHT22;42209;6.376;-10.782;2023-12-29T03:50:53;23.70;57.00
56300;DHT22;42209;6.376;-10.782;2023-12-29T03:53:22;23.70;60.20
56300;DHT22;42209;6.376;-10.782;2023-12-29T03:55:51;23.80;63.00
56300;DHT22;42209;6.376;-10.782;2023-12-29T03:58:20;24.00;65.00
56300;DHT22;42209;6.376;-10.782;2023-12-29T04:00:49;24.10;66.50
56300;DHT22;42209;6.376;-10.782;2023-12-29T04:03:17;24.20;67.70
56300;DHT22;42209;6.376;-10.782;2023-12-29T04:05:45;24.30;68.90
56300;DHT22;42209;6.376;-10.782;2023-12-29T04:08:14;24.40;69.70
56300;DHT22;42209;6.376;-10.782;2023-12-29T04:10:42;24.10;62.00
56300;DHT22;42209;6.376;-10.782;2023-12-29T04:13:10;23.70;60.10
56300;DHT22;42209;6.376;-10.782;2023-12-29T04:15:39;23.80;63.50
56300;DHT22;42209;6.376;-10.782;2023-12-29T04:18:07;24.00;65.20
56300;DHT22;42209;6.376;-10.782;2023-12-29T04:20:36;24.20;66.70
56300;DHT22;42209;6.376;-10.782;2023-12-29T04:23:06;24.30;67.70
56300;DHT22;42209;6.376;-10.782;2023-12-29T04:25:34;24.40;64.40
56300;DHT22;42209;6.376;-10.782;2023-12-29T04:28:06;24.00;60.00
56300;DHT22;42209;6.376;-10.782;2023-12-29T04:30:34;23.70;58.00
56300;DHT22;42209;6.376;-10.782;2023-12-29T04:33:02;23.70;62.20
56300;DHT22;42209;6.376;-10.782;2023-12-29T04:35:31;23.90;64.70
56300;DHT22;42209;6.376;-10.782;2023-12-29T04:37:59;24.20;66.40
56300;DHT22;42209;6.376;-10.782;2023-12-29T04:40:28;24.30;67.70
56300;DHT22;42209;6.376;-10.782;2023-12-29T04:42:56;24.40;67.10
56300;DHT22;42209;6.376;-10.782;2023-12-29T04:45:24;24.10;61.30
56300;DHT22;42209;6.376;-10.782;2023-12-29T04:47:53;23.80;58.70
56300;DHT22;42209;6.376;-10.782;2023-12-29T04:50:21;23.60;60.30
56300;DHT22;42209;6.376;-10.782;2023-12-29T04:52:50;23.90;64.10
56300;DHT22;42209;6.376;-10.782;2023-12-29T04:55:18;24.00;65.70
56300;DHT22;42209;6.376;-10.782;2023-12-29T04:57:46;24.20;67.20
56300;DHT22;42209;6.376;-10.782;2023-12-29T05:00:15;24.30;68.80
56300;DHT22;42209;6.376;-10.782;2023-12-29T05:02:44;24.30;63.90
56300;DHT22;42209;6.376;-10.782;2023-12-29T05:05:12;23.90;60.00
56300;DHT22;42209;6.376;-10.782;2023-12-29T05:07:40;23.70;58.00
56300;DHT22;42209;6.376;-10.782;2023-12-29T05:10:09;23.70;62.90
56300;DHT22;42209;6.376;-10.782;2023-12-29T05:12:37;23.90;65.10
56300;DHT22;42209;6.376;-10.782;2023-12-29T05:15:09;24.10;67.00
56300;DHT22;42209;6.376;-10.782;2023-12-29T05:17:37;24.20;68.00
56300;DHT22;42209;6.376;-10.782;2023-12-29T05:20:09;24.30;66.00
56300;DHT22;42209;6.376;-10.782;2023-12-29T05:22:38;24.00;60.90
56300;DHT22;42209;6.376;-10.782;2023-12-29T05:25:07;23.70;58.50
56300;DHT22;42209;6.376;-10.782;2023-12-29T05:27:35;23.70;61.20
56300;DHT22;42209;6.376;-10.782;2023-12-29T05:30:06;23.90;64.20
56300;DHT22;42209;6.376;-10.782;2023-12-29T05:32:34;24.10;66.10
56300;DHT22;42209;6.376;-10.782;2023-12-29T05:35:05;24.20;67.60
56300;DHT22;42209;6.376;-10.782;2023-12-29T05:37:34;24.30;68.80
56300;DHT22;42209;6.376;-10.782;2023-12-29T05:40:02;24.30;63.50
56300;DHT22;42209;6.376;-10.782;2023-12-29T05:42:31;24.00;60.20
56300;DHT22;42209;6.376;-10.782;2023-12-29T05:45:02;23.70;58.70
56300;DHT22;42209;6.376;-10.782;2023-12-29T05:47:30;23.70;63.60
56300;DHT22;42209;6.376;-10.782;2023-12-29T05:49:59;24.00;65.70
56300;DHT22;42209;6.376;-10.782;2023-12-29T05:52:27;24.10;67.20
56300;DHT22;42209;6.376;-10.782;2023-12-29T05:54:56;24.30;68.60
56300;DHT22;42209;6.376;-10.782;2023-12-29T05:57:24;24.30;65.70
56300;DHT22;42209;6.376;-10.782;2023-12-29T05:59:53;24.00;61.30
56300;DHT22;42209;6.376;-10.782;2023-12-29T06:02:21;23.70;58.70
56300;DHT22;42209;6.376;-10.782;2023-12-29T06:04:50;23.70;63.10
56300;DHT22;42209;6.376;-10.782;2023-12-29T06:07:18;23.90;65.40
56300;DHT22;42209;6.376;-10.782;2023-12-29T06:09:46;24.10;67.20
56300;DHT22;42209;6.376;-10.782;2023-12-29T06:12:15;24.20;68.20
56300;DHT22;42209;6.376;-10.782;2023-12-29T06:14:43;24.40;69.30
56300;DHT22;42209;6.376;-10.782;2023-12-29T06:17:11;24.20;63.30
56300;DHT22;42209;6.376;-10.782;2023-12-29T06:19:40;23.90;59.90
56300;DHT22;42209;6.376;-10.782;2023-12-29T06:22:08;23.60;59.30
56300;DHT22;42209;6.376;-10.782;2023-12-29T06:24:37;23.80;64.30
56300;DHT22;42209;6.376;-10.782;2023-12-29T06:27:05;24.00;66.10
56300;DHT22;42209;6.376;-10.782;2023-12-29T06:29:34;24.10;67.50
56300;DHT22;42209;6.376;-10.782;2023-12-29T06:32:02;24.30;68.80
56300;DHT22;42209;6.376;-10.782;2023-12-29T06:34:31;24.30;66.40
56300;DHT22;42209;6.376;-10.782;2023-12-29T06:36:59;24.00;61.00
56300;DHT22;42209;6.376;-10.782;2023-12-29T06:39:28;23.70;59.00
56300;DHT22;42209;6.376;-10.782;2023-12-29T06:41:56;23.70;62.80
56300;DHT22;42209;6.376;-10.782;2023-12-29T06:44:24;23.90;65.30
56300;DHT22;42209;6.376;-10.782;2023-12-29T06:46:53;24.10;67.20
56300;DHT22;42209;6.376;-10.782;2023-12-29T06:49:21;24.20;68.50
56300;DHT22;42209;6.376;-10.782;2023-12-29T06:51:49;24.30;69.60
56300;DHT22;42209;6.376;-10.782;2023-12-29T06:54:19;24.20;64.60
56300;DHT22;42209;6.376;-10.782;2023-12-29T06:56:47;23.90;60.60
56300;DHT22;42209;6.376;-10.782;2023-12-29T06:59:16;23.60;58.70
56300;DHT22;42209;6.376;-10.782;2023-12-29T07:01:44;23.70;63.10
56300;DHT22;42209;6.376;-10.782;2023-12-29T07:04:12;23.90;66.10
56300;DHT22;42209;6.376;-10.782;2023-12-29T07:06:41;24.00;69.10
56300;DHT22;42209;6.376;-10.782;2023-12-29T07:09:10;24.20;71.50
56300;DHT22;42209;6.376;-10.782;2023-12-29T07:11:38;24.40;72.20
56300;DHT22;42209;6.376;-10.782;2023-12-29T07:14:06;24.10;70.30
56300;DHT22;42209;6.376;-10.782;2023-12-29T07:16:34;23.90;70.20
56300;DHT22;42209;6.376;-10.782;2023-12-29T07:19:03;23.70;69.80
56300;DHT22;42209;6.376;-10.782;2023-12-29T07:21:31;23.70;69.90
56300;DHT22;42209;6.376;-10.782;2023-12-29T07:24:00;23.60;69.60
56300;DHT22;42209;6.376;-10.782;2023-12-29T07:26:28;23.70;75.30
56300;DHT22;42209;6.376;-10.782;2023-12-29T07:28:56;24.00;77.90
56300;DHT22;42209;6.376;-10.782;2023-12-29T07:31:25;24.20;80.90
56300;DHT22;42209;6.376;-10.782;2023-12-29T07:33:53;24.20;78.00
56300;DHT22;42209;6.376;-10.782;2023-12-29T07:36:21;24.00;75.40
56300;DHT22;42209;6.376;-10.782;2023-12-29T07:38:50;23.80;72.20
56300;DHT22;42209;6.376;-10.782;2023-12-29T07:41:18;23.60;69.50
56300;DHT22;42209;6.376;-10.782;2023-12-29T07:43:47;23.60;71.50
56300;DHT22;42209;6.376;-10.782;2023-12-29T07:46:26;23.80;73.50
56300;DHT22;42209;6.376;-10.782;2023-12-29T07:48:55;24.00;74.40
56300;DHT22;42209;6.376;-10.782;2023-12-29T07:51:25;24.20;75.70
56300;DHT22;42209;6.376;-10.782;2023-12-29T07:53:56;24.20;70.50
56300;DHT22;42209;6.376;-10.782;2023-12-29T07:56:24;23.90;66.30
56300;DHT22;42209;6.376;-10.782;2023-12-29T07:58:53;23.60;64.20
56300;DHT22;42209;6.376;-10.782;2023-12-29T08:01:21;23.60;67.40
56300;DHT22;42209;6.376;-10.782;2023-12-29T08:03:50;23.80;69.90
56300;DHT22;42209;6.376;-10.782;2023-12-29T08:06:18;24.00;71.20
56300;DHT22;42209;6.376;-10.782;2023-12-29T08:08:46;24.20;72.50
56300;DHT22;42209;6.376;-10.782;2023-12-29T08:11:17;24.30;71.30
56300;DHT22;42209;6.376;-10.782;2023-12-29T08:13:47;24.00;66.10
56300;DHT22;42209;6.376;-10.782;2023-12-29T08:16:16;23.70;63.00
56300;DHT22;42209;6.376;-10.782;2023-12-29T08:18:45;23.60;62.70
56300;DHT22;42209;6.376;-10.782;2023-12-29T08:21:18;23.70;67.10
56300;DHT22;42209;6.376;-10.782;2023-12-29T08:23:47;24.00;70.40
56300;DHT22;42209;6.376;-10.782;2023-12-29T08:26:16;24.10;72.80
56300;DHT22;42209;6.376;-10.782;2023-12-29T08:28:44;24.30;74.00
56300;DHT22;42209;6.376;-10.782;2023-12-29T08:31:14;24.10;68.90
56300;DHT22;42209;6.376;-10.782;2023-12-29T08:33:42;23.90;66.40
56300;DHT22;42209;6.376;-10.782;2023-12-29T08:36:12;23.70;64.90
56300;DHT22;42209;6.376;-10.782;2023-12-29T08:38:40;23.50;63.10
56300;DHT22;42209;6.376;-10.782;2023-12-29T08:41:09;23.70;67.60
56300;DHT22;42209;6.376;-10.782;2023-12-29T08:43:37;23.90;69.00
56300;DHT22;42209;6.376;-10.782;2023-12-29T08:46:05;24.10;70.70
56300;DHT22;42209;6.376;-10.782;2023-12-29T08:48:34;24.20;72.10
56300;DHT22;42209;6.376;-10.782;2023-12-29T08:51:02;24.20;67.40
56300;DHT22;42209;6.376;-10.782;2023-12-29T08:53:31;23.90;63.90
56300;DHT22;42209;6.376;-10.782;2023-12-29T08:55:59;23.70;61.70
56300;DHT22;42209;6.376;-10.782;2023-12-29T08:58:28;23.50;61.20
56300;DHT22;42209;6.376;-10.782;2023-12-29T09:00:57;23.70;65.60
56300;DHT22;42209;6.376;-10.782;2023-12-29T09:03:25;23.90;67.50
56300;DHT22;42209;6.376;-10.782;2023-12-29T09:05:53;24.00;68.90
56300;DHT22;42209;6.376;-10.782;2023-12-29T09:08:23;24.20;70.30
56300;DHT22;42209;6.376;-10.782;2023-12-29T09:10:52;24.20;68.30
56300;DHT22;42209;6.376;-10.782;2023-12-29T09:13:20;23.90;63.40
56300;DHT22;42209;6.376;-10.782;2023-12-29T09:15:49;23.60;60.40
56300;DHT22;42209;6.376;-10.782;2023-12-29T09:18:17;23.50;63.90
56300;DHT22;42209;6.376;-10.782;2023-12-29T09:20:45;23.70;66.80
56300;DHT22;42209;6.376;-10.782;2023-12-29T09:23:14;23.90;68.50
56300;DHT22;42209;6.376;-10.782;2023-12-29T09:25:43;24.00;70.30
56300;DHT22;42209;6.376;-10.782;2023-12-29T09:28:11;24.10;72.00
56300;DHT22;42209;6.376;-10.782;2023-12-29T09:30:40;24.20;73.40
56300;DHT22;42209;6.376;-10.782;2023-12-29T09:33:08;24.20;74.10
56300;DHT22;42209;6.376;-10.782;2023-12-29T09:35:36;24.30;74.30
56300;DHT22;42209;6.376;-10.782;2023-12-29T09:38:05;24.20;70.80
56300;DHT22;42209;6.376;-10.782;2023-12-29T09:40:34;23.80;64.10
56300;DHT22;42209;6.376;-10.782;2023-12-29T09:43:03;23.50;63.80
56300;DHT22;42209;6.376;-10.782;2023-12-29T09:45:33;23.70;67.30
56300;DHT22;42209;6.376;-10.782;2023-12-29T09:48:03;23.90;69.40
56300;DHT22;42209;6.376;-10.782;2023-12-29T09:50:35;24.00;71.00
56300;DHT22;42209;6.376;-10.782;2023-12-29T09:53:04;24.20;72.80
56300;DHT22;42209;6.376;-10.782;2023-12-29T09:55:34;24.20;73.90
56300;DHT22;42209;6.376;-10.782;2023-12-29T09:58:03;24.20;69.30
56300;DHT22;42209;6.376;-10.782;2023-12-29T10:00:33;23.80;65.50
56300;DHT22;42209;6.376;-10.782;2023-12-29T10:03:02;23.60;65.90
56300;DHT22;42209;6.376;-10.782;2023-12-29T10:05:31;23.80;68.80
56300;DHT22;42209;6.376;-10.782;2023-12-29T10:08:02;24.00;70.60
56300;DHT22;42209;6.376;-10.782;2023-12-29T10:10:32;24.00;72.10
56300;DHT22;42209;6.376;-10.782;2023-12-29T10:13:01;24.20;73.30
56300;DHT22;42209;6.376;-10.782;2023-12-29T10:15:42;24.30;72.80
56300;DHT22;42209;6.376;-10.782;2023-12-29T10:18:31;24.00;67.60
56300;DHT22;42209;6.376;-10.782;2023-12-29T10:21:01;23.60;64.20
56300;DHT22;42209;6.376;-10.782;2023-12-29T10:23:42;23.70;68.30
56300;DHT22;42209;6.376;-10.782;2023-12-29T10:26:11;23.90;70.50
56300;DHT22;42209;6.376;-10.782;2023-12-29T10:28:40;24.00;72.50
56300;DHT22;42209;6.376;-10.782;2023-12-29T10:31:10;24.20;74.10
56300;DHT22;42209;6.376;-10.782;2023-12-29T10:33:42;24.30;75.20
56300;DHT22;42209;6.376;-10.782;2023-12-29T10:36:11;24.10;69.50
56300;DHT22;42209;6.376;-10.782;2023-12-29T10:38:39;23.80;66.60
56300;DHT22;42209;6.376;-10.782;2023-12-29T10:41:14;23.60;68.30
56300;DHT22;42209;6.376;-10.782;2023-12-29T10:43:45;23.80;70.60
56300;DHT22;42209;6.376;-10.782;2023-12-29T10:46:13;23.90;72.20
56300;DHT22;42209;6.376;-10.782;2023-12-29T10:48:42;24.10;73.80
56300;DHT22;42209;6.376;-10.782;2023-12-29T10:51:10;24.20;75.20
56300;DHT22;42209;6.376;-10.782;2023-12-29T10:53:38;24.20;72.40
56300;DHT22;42209;6.376;-10.782;2023-12-29T10:56:26;23.90;68.00
56300;DHT22;42209;6.376;-10.782;2023-12-29T10:59:00;23.60;65.10
56300;DHT22;42209;6.376;-10.782;2023-12-29T11:01:35;23.70;69.80
56300;DHT22;42209;6.376;-10.782;2023-12-29T11:04:05;23.90;72.20
56300;DHT22;42209;6.376;-10.782;2023-12-29T11:06:44;24.10;73.60
56300;DHT22;42209;6.376;-10.782;2023-12-29T11:09:12;24.20;74.90
56300;DHT22;42209;6.376;-10.782;2023-12-29T11:11:42;24.20;69.70
56300;DHT22;42209;6.376;-10.782;2023-12-29T11:14:11;23.90;66.60
56300;DHT22;42209;6.376;-10.782;2023-12-29T11:16:41;23.70;64.40
56300;DHT22;42209;6.376;-10.782;2023-12-29T11:19:11;23.60;62.50
56300;DHT22;42209;6.376;-10.782;2023-12-29T11:21:42;23.70;67.90
56300;DHT22;42209;6.376;-10.782;2023-12-29T11:24:12;23.90;69.80
56300;DHT22;42209;6.376;-10.782;2023-12-29T11:26:49;24.00;71.40
56300;DHT22;42209;6.376;-10.782;2023-12-29T11:29:17;24.20;72.60
56300;DHT22;42209;6.376;-10.782;2023-12-29T11:31:48;24.20;68.80
56300;DHT22;42209;6.376;-10.782;2023-12-29T11:34:30;23.90;65.80
56300;DHT22;42209;6.376;-10.782;2023-12-29T11:40:04;23.50;64.30
56300;DHT22;42209;6.376;-10.782;2023-12-29T11:42:40;23.70;68.30
56300;DHT22;42209;6.376;-10.782;2023-12-29T11:45:28;24.00;70.10
56300;DHT22;42209;6.376;-10.782;2023-12-29T11:47:57;24.10;72.30
56300;DHT22;42209;6.376;-10.782;2023-12-29T11:50:51;24.20;71.70
56300;DHT22;42209;6.376;-10.782;2023-12-29T11:53:31;24.00;66.40
56300;DHT22;42209;6.376;-10.782;2023-12-29T11:56:00;23.70;63.80
56300;DHT22;42209;6.376;-10.782;2023-12-29T11:58:28;23.60;62.00
56300;DHT22;42209;6.376;-10.782;2023-12-29T12:00:57;23.60;66.30
56300;DHT22;42209;6.376;-10.782;2023-12-29T12:03:27;23.90;69.10
56300;DHT22;42209;6.376;-10.782;2023-12-29T12:05:56;24.00;70.90
56300;DHT22;42209;6.376;-10.782;2023-12-29T12:08:28;24.20;72.50
56300;DHT22;42209;6.376;-10.782;2023-12-29T12:13:46;23.90;64.90
56300;DHT22;42209;6.376;-10.782;2023-12-29T12:19:14;23.50;62.80
56300;DHT22;42209;6.376;-10.782;2023-12-29T12:21:46;23.70;67.40
56300;DHT22;42209;6.376;-10.782;2023-12-29T12:24:15;23.90;69.60
56300;DHT22;42209;6.376;-10.782;2023-12-29T12:26:46;24.10;71.20
56300;DHT22;42209;6.376;-10.782;2023-12-29T12:29:14;24.20;71.30
56300;DHT22;42209;6.376;-10.782;2023-12-29T12:34:21;23.80;63.80
56300;DHT22;42209;6.376;-10.782;2023-12-29T12:36:53;23.60;62.10
56300;DHT22;42209;6.376;-10.782;2023-12-29T12:39:22;23.50;63.10
56300;DHT22;42209;6.376;-10.782;2023-12-29T12:41:50;23.70;67.10
56300;DHT22;42209;6.376;-10.782;2023-12-29T12:44:19;23.90;69.40
56300;DHT22;42209;6.376;-10.782;2023-12-29T12:49:16;24.20;72.40
56300;DHT22;42209;6.376;-10.782;2023-12-29T12:51:45;24.10;67.20
56300;DHT22;42209;6.376;-10.782;2023-12-29T12:54:17;23.90;64.70
56300;DHT22;42209;6.376;-10.782;2023-12-29T12:56:46;23.70;63.00
56300;DHT22;42209;6.376;-10.782;2023-12-29T12:59:16;23.60;62.00
56300;DHT22;42209;6.376;-10.782;2023-12-29T13:01:44;23.60;64.20
56300;DHT22;42209;6.376;-10.782;2023-12-29T13:04:13;23.80;67.50
56300;DHT22;42209;6.376;-10.782;2023-12-29T13:06:43;24.00;69.30
56300;DHT22;42209;6.376;-10.782;2023-12-29T13:09:17;24.20;70.70
56300;DHT22;42209;6.376;-10.782;2023-12-29T13:11:46;24.10;66.40
56300;DHT22;42209;6.376;-10.782;2023-12-29T13:14:23;23.90;63.80
56300;DHT22;42209;6.376;-10.782;2023-12-29T13:16:52;23.70;61.70
56300;DHT22;42209;6.376;-10.782;2023-12-29T13:19:22;23.60;60.70
56300;DHT22;42209;6.376;-10.782;2023-12-29T13:21:53;23.50;59.90
56300;DHT22;42209;6.376;-10.782;2023-12-29T13:24:23;23.50;61.90
56300;DHT22;42209;6.376;-10.782;2023-12-29T13:26:56;23.80;66.40
56300;DHT22;42209;6.376;-10.782;2023-12-29T13:29:26;24.00;68.80
56300;DHT22;42209;6.376;-10.782;2023-12-29T13:32:01;24.20;70.80
56300;DHT22;42209;6.376;-10.782;2023-12-29T13:39:53;23.70;61.90
56300;DHT22;42209;6.376;-10.782;2023-12-29T13:42:25;23.60;60.70
56300;DHT22;42209;6.376;-10.782;2023-12-29T13:44:55;23.50;59.50
56300;DHT22;42209;6.376;-10.782;2023-12-29T13:47:25;23.40;59.10
56300;DHT22;42209;6.376;-10.782;2023-12-29T13:49:54;23.40;58.50
56300;DHT22;42209;6.376;-10.782;2023-12-29T13:52:22;23.40;58.90
56300;DHT22;42209;6.376;-10.782;2023-12-29T13:54:51;23.60;63.70
56300;DHT22;42209;6.376;-10.782;2023-12-29T13:57:30;23.90;66.20
56300;DHT22;42209;6.376;-10.782;2023-12-29T14:00:17;24.00;67.90
56300;DHT22;42209;6.376;-10.782;2023-12-29T14:02:49;24.20;67.20
56300;DHT22;42209;6.376;-10.782;2023-12-29T14:05:32;24.00;62.60
56300;DHT22;42209;6.376;-10.782;2023-12-29T14:10:36;23.60;59.60
56300;DHT22;42209;6.376;-10.782;2023-12-29T14:13:09;23.50;59.10
56300;DHT22;42209;6.376;-10.782;2023-12-29T14:15:42;23.40;57.80
56300;DHT22;42209;6.376;-10.782;2023-12-29T14:21:01;23.90;65.50
56300;DHT22;42209;6.376;-10.782;2023-12-29T14:23:30;24.00;67.30
56300;DHT22;42209;6.376;-10.782;2023-12-29T14:26:04;24.20;66.80
56300;DHT22;42209;6.376;-10.782;2023-12-29T14:28:32;24.00;62.70
56300;DHT22;42209;6.376;-10.782;2023-12-29T14:31:02;23.80;60.70
56300;DHT22;42209;6.376;-10.782;2023-12-29T14:33:30;23.60;59.30
56300;DHT22;42209;6.376;-10.782;2023-12-29T14:35:59;23.60;58.70
56300;DHT22;42209;6.376;-10.782;2023-12-29T14:38:27;23.50;58.50
56300;DHT22;42209;6.376;-10.782;2023-12-29T14:40:55;23.50;59.60
56300;DHT22;42209;6.376;-10.782;2023-12-29T14:43:24;23.60;63.20
56300;DHT22;42209;6.376;-10.782;2023-12-29T14:45:52;23.70;66.30
56300;DHT22;42209;6.376;-10.782;2023-12-29T14:48:22;23.80;68.20
56300;DHT22;42209;6.376;-10.782;2023-12-29T14:50:50;23.70;70.80
56300;DHT22;42209;6.376;-10.782;2023-12-29T14:53:19;23.80;73.30
56300;DHT22;42209;6.376;-10.782;2023-12-29T14:55:47;23.90;74.10
56300;DHT22;42209;6.376;-10.782;2023-12-29T14:58:15;23.90;73.70
56300;DHT22;42209;6.376;-10.782;2023-12-29T15:00:44;23.90;72.70
56300;DHT22;42209;6.376;-10.782;2023-12-29T15:03:13;23.90;72.00
56300;DHT22;42209;6.376;-10.782;2023-12-29T15:05:43;23.90;72.70
56300;DHT22;42209;6.376;-10.782;2023-12-29T15:08:13;23.90;74.00
56300;DHT22;42209;6.376;-10.782;2023-12-29T15:10:42;24.00;73.40
56300;DHT22;42209;6.376;-10.782;2023-12-29T15:13:10;23.90;72.40
56300;DHT22;42209;6.376;-10.782;2023-12-29T15:15:38;24.00;73.50
56300;DHT22;42209;6.376;-10.782;2023-12-29T15:18:07;24.00;73.20
56300;DHT22;42209;6.376;-10.782;2023-12-29T15:20:35;24.00;72.10
56300;DHT22;42209;6.376;-10.782;2023-12-29T15:23:04;24.00;72.60
56300;DHT22;42209;6.376;-10.782;2023-12-29T15:25:32;24.00;72.90
56300;DHT22;42209;6.376;-10.782;2023-12-29T15:28:00;24.00;72.00
56300;DHT22;42209;6.376;-10.782;2023-12-29T15:30:29;24.00;72.00
56300;DHT22;42209;6.376;-10.782;2023-12-29T15:32:58;24.00;70.50
56300;DHT22;42209;6.376;-10.782;2023-12-29T15:35:26;23.80;68.50
56300;DHT22;42209;6.376;-10.782;2023-12-29T15:37:55;23.70;66.00
56300;DHT22;42209;6.376;-10.782;2023-12-29T15:40:23;23.50;64.30
56300;DHT22;42209;6.376;-10.782;2023-12-29T15:42:52;23.70;68.70
56300;DHT22;42209;6.376;-10.782;2023-12-29T15:45:20;23.90;71.00
56300;DHT22;42209;6.376;-10.782;2023-12-29T15:47:50;24.10;73.40
56300;DHT22;42209;6.376;-10.782;2023-12-29T15:50:19;24.20;71.50
56300;DHT22;42209;6.376;-10.782;2023-12-29T15:52:47;23.90;65.30
56300;DHT22;42209;6.376;-10.782;2023-12-29T15:55:15;23.70;62.10
56300;DHT22;42209;6.376;-10.782;2023-12-29T15:57:44;23.70;64.60
56300;DHT22;42209;6.376;-10.782;2023-12-29T16:00:13;23.90;67.00